createdAt,value
2018-02-24T00:01:21.660Z,95.40
2018-02-24T00:03:55.141Z,96.30
2018-02-24T00:06:23.060Z,93.00
2018-02-24T00:08:51.009Z,93.20
2018-02-24T00:11:19.664Z,91.90
2018-02-24T00:13:47.708Z,91.80
2018-02-24T00:16:15.657Z,90.90
2018-02-24T00:18:43.632Z,91.90
2018-02-24T00:21:11.541Z,92.30
2018-02-24T00:23:39.483Z,90.90
2018-02-24T00:26:07.360Z,91.70
2018-02-24T00:28:35.326Z,92.00
2018-02-24T00:31:03.208Z,93.10
2018-02-24T00:33:33.196Z,92.50
2018-02-24T00:36:01.130Z,93.00
2018-02-24T00:38:29.055Z,92.30
2018-02-24T00:40:57.024Z,93.80
2018-02-24T00:43:24.946Z,93.40
2018-02-24T00:45:53.599Z,92.20
2018-02-24T00:48:21.564Z,92.20
2018-02-24T00:50:49.498Z,90.90
2018-02-24T00:53:17.480Z,91.10
2018-02-24T00:55:45.413Z,91.20
2018-02-24T00:58:13.403Z,90.70
2018-02-24T01:00:41.775Z,90.70
2018-02-24T01:03:09.944Z,90.50
2018-02-24T01:05:40.922Z,90.10
2018-02-24T01:08:08.935Z,90.10
2018-02-24T01:10:36.814Z,90.10
2018-02-24T01:13:04.727Z,88.00
2018-02-24T01:15:33.404Z,91.00
2018-02-24T01:18:01.336Z,91.00
2018-02-24T01:20:29.251Z,90.70
2018-02-24T01:23:01.181Z,89.50
2018-02-24T01:25:29.070Z,88.50
2018-02-24T01:27:57.044Z,87.70
2018-02-24T01:30:25.182Z,88.70
2018-02-24T01:32:53.170Z,88.70
2018-02-24T01:35:21.069Z,88.90
2018-02-24T01:37:49.021Z,91.00
2018-02-24T01:40:16.912Z,90.40
2018-02-24T01:42:46.923Z,91.60
2018-02-24T01:45:14.815Z,91.50
2018-02-24T01:47:42.744Z,93.30
2018-02-24T01:50:10.672Z,93.20
2018-02-24T01:52:39.821Z,94.60
2018-02-24T01:55:07.699Z,94.50
2018-02-24T01:57:35.652Z,95.60
2018-02-24T02:00:03.608Z,95.60
2018-02-24T02:02:31.568Z,97.00
2018-02-24T02:04:59.483Z,96.60
2018-02-24T02:07:27.463Z,96.20
2018-02-24T02:09:55.405Z,98.20
2018-02-24T02:12:23.404Z,98.60
2018-02-24T02:14:51.297Z,97.00
2018-02-24T02:17:19.297Z,99.50
2018-02-24T02:19:47.312Z,99.10
2018-02-24T02:22:15.276Z,99.80
2018-02-24T02:24:43.258Z,99.70
2018-02-24T02:27:11.243Z,99.90
2018-02-24T02:29:39.211Z,99.00
2018-02-24T02:32:07.259Z,99.50
2018-02-24T02:34:35.233Z,99.70
2018-02-24T02:37:03.238Z,99.30
2018-02-24T02:39:31.182Z,99.90
2018-02-24T02:41:59.066Z,99.90
2018-02-24T02:44:27.188Z,99.90
2018-02-24T02:46:55.131Z,99.90
2018-02-24T02:49:23.140Z,99.90
2018-02-24T02:51:51.060Z,99.90
2018-02-24T02:54:19.744Z,99.90
2018-02-24T02:56:48.468Z,99.90
2018-02-24T02:59:16.576Z,99.90
2018-02-24T03:01:44.606Z,99.90
2018-02-24T03:04:12.692Z,99.90
2018-02-24T03:06:40.767Z,99.90
2018-02-24T03:09:08.850Z,99.90
2018-02-24T03:11:36.815Z,99.90
2018-02-24T03:14:05.053Z,99.90
2018-02-24T03:16:33.885Z,99.90
2018-02-24T03:19:01.967Z,99.90
2018-02-24T03:21:30.004Z,99.90
2018-02-24T03:23:58.124Z,99.90
2018-02-24T03:26:26.224Z,99.90
2018-02-24T03:28:54.222Z,98.00
2018-02-24T03:31:22.372Z,99.90
2018-02-24T03:33:51.273Z,99.90
2018-02-24T03:36:20.031Z,99.90
2018-02-24T03:38:48.105Z,99.90
2018-02-24T03:41:16.066Z,99.90
2018-02-24T03:43:44.174Z,99.90
2018-02-24T03:46:15.931Z,99.40
2018-02-24T03:48:43.934Z,97.00
2018-02-24T03:51:11.896Z,98.20
2018-02-24T03:53:39.868Z,99.10
2018-02-24T03:56:07.771Z,99.30
2018-02-24T03:58:35.779Z,95.20
2018-02-24T04:01:03.737Z,97.20
2018-02-24T04:03:33.919Z,99.20
2018-02-24T04:06:01.944Z,97.70
2018-02-24T04:08:29.929Z,97.30
2018-02-24T04:10:58.627Z,97.10
2018-02-24T04:13:26.578Z,97.00
2018-02-24T04:15:55.237Z,97.30
2018-02-24T04:18:23.210Z,97.30
2018-02-24T04:20:51.127Z,98.00
2018-02-24T04:23:19.100Z,99.90
2018-02-24T04:25:47.006Z,99.00
2018-02-24T04:28:14.971Z,97.40
2018-02-24T04:30:42.889Z,95.30
2018-02-24T04:33:12.866Z,95.60
2018-02-24T04:35:40.796Z,95.60
2018-02-24T04:38:08.739Z,97.80
2018-02-24T04:40:36.696Z,97.90
2018-02-24T04:43:04.681Z,98.40
2018-02-24T04:45:32.583Z,98.30
2018-02-24T04:48:00.530Z,94.10
2018-02-24T04:50:28.442Z,94.80
2018-02-24T04:52:56.376Z,94.30
2018-02-24T04:55:24.264Z,94.80
2018-02-24T04:57:52.168Z,93.50
2018-02-24T05:00:20.123Z,93.10
2018-02-24T05:02:48.121Z,93.70
2018-02-24T05:05:16.070Z,94.60
2018-02-24T05:07:43.951Z,92.20
2018-02-24T05:10:11.920Z,95.10
2018-02-24T05:12:39.800Z,95.40
2018-02-24T05:15:07.743Z,94.50
2018-02-24T05:17:35.623Z,94.80
2018-02-24T05:20:03.653Z,96.80
2018-02-24T05:22:31.541Z,98.70
2018-02-24T05:24:59.488Z,99.90
2018-02-24T05:27:27.420Z,99.00
2018-02-24T05:29:55.369Z,97.80
2018-02-24T05:32:23.493Z,99.20
2018-02-24T05:34:51.445Z,98.20
2018-02-24T05:37:19.345Z,98.20
2018-02-24T05:39:47.289Z,99.00
2018-02-24T05:42:15.193Z,99.90
2018-02-24T05:44:43.133Z,99.90
2018-02-24T05:47:11.033Z,99.90
2018-02-24T05:49:38.992Z,99.90
2018-02-24T05:52:06.936Z,99.90
2018-02-24T05:54:35.870Z,99.90
2018-02-24T05:57:03.765Z,99.90
2018-02-24T05:59:31.713Z,99.90
2018-02-24T06:01:59.681Z,99.70
2018-02-24T06:04:31.072Z,97.90
2018-02-24T06:07:04.324Z,97.30
2018-02-24T06:09:35.204Z,99.90
2018-02-24T06:12:06.684Z,96.60
2018-02-24T06:14:39.074Z,99.20
2018-02-24T06:17:10.218Z,99.90
2018-02-24T06:19:40.365Z,99.90
2018-02-24T06:22:11.513Z,99.90
2018-02-24T06:24:43.668Z,99.00
2018-02-24T06:27:15.014Z,98.90
2018-02-24T06:29:46.859Z,99.60
2018-02-24T06:32:18.524Z,99.90
2018-02-24T06:34:48.431Z,99.90
2018-02-24T06:37:19.214Z,99.90
2018-02-24T06:39:51.636Z,99.90
2018-02-24T06:42:22.842Z,99.90
2018-02-24T06:44:50.991Z,99.90
2018-02-24T06:47:18.887Z,99.90
2018-02-24T06:49:46.847Z,99.90
2018-02-24T06:52:14.725Z,99.90
2018-02-24T06:54:42.736Z,98.70
2018-02-24T06:57:10.615Z,97.70
2018-02-24T06:59:38.603Z,95.10
2018-02-24T07:02:06.484Z,98.60
2018-02-24T07:04:34.426Z,97.70
2018-02-24T07:07:02.310Z,97.40
2018-02-24T07:09:30.264Z,98.10
2018-02-24T07:11:58.179Z,96.20
2018-02-24T07:14:26.121Z,93.70
2018-02-24T07:16:54.003Z,93.10
2018-02-24T07:19:21.948Z,93.90
2018-02-24T07:21:49.920Z,96.50
2018-02-24T07:24:21.442Z,95.90
2018-02-24T07:26:52.752Z,96.90
2018-02-24T07:29:24.897Z,94.10
2018-02-24T07:31:57.241Z,84.90
2018-02-24T07:34:28.817Z,74.70
2018-02-24T07:37:00.292Z,82.10
2018-02-24T07:39:31.554Z,78.90
2018-02-24T07:42:02.548Z,78.60
2018-02-24T07:44:30.688Z,63.20
2018-02-24T07:46:58.570Z,49.50
2018-02-24T07:49:26.510Z,47.80
2018-02-24T07:51:54.388Z,41.20
2018-02-24T07:54:22.314Z,37.30
2018-02-24T07:56:50.227Z,35.10
2018-02-24T07:59:18.158Z,34.40
2018-02-24T08:01:46.029Z,33.40
2018-02-24T08:04:13.953Z,32.00
2018-02-24T08:06:41.833Z,30.20
2018-02-24T08:09:09.748Z,30.20
2018-02-24T08:11:39.177Z,29.80
2018-02-24T08:14:08.142Z,28.60
2018-02-24T08:16:36.052Z,28.60
2018-02-24T08:19:03.983Z,29.70
2018-02-24T08:21:33.518Z,29.60
2018-02-24T08:24:03.662Z,29.70
2018-02-24T08:26:31.532Z,29.70
2018-02-24T08:28:59.419Z,29.80
2018-02-24T08:31:29.442Z,29.50
2018-02-24T08:33:57.361Z,29.20
2018-02-24T08:36:25.292Z,29.00
2018-02-24T08:38:53.190Z,29.20
2018-02-24T08:41:21.917Z,28.90
2018-02-24T08:43:51.998Z,29.00
2018-02-24T08:46:20.707Z,27.60
2018-02-24T08:48:48.634Z,27.60
2018-02-24T08:51:16.590Z,27.80
2018-02-24T08:53:44.470Z,28.10
2018-02-24T08:56:12.417Z,28.00
2018-02-24T08:58:40.304Z,27.90
2018-02-24T09:01:08.248Z,27.60
2018-02-24T09:03:36.146Z,28.60
2018-02-24T09:06:04.184Z,28.70
2018-02-24T09:08:32.121Z,28.40
2018-02-24T09:11:00.814Z,28.60
2018-02-24T09:13:28.847Z,28.60
2018-02-24T09:15:56.788Z,28.30
2018-02-24T09:18:24.672Z,27.80
2018-02-24T09:20:52.620Z,28.30
2018-02-24T09:23:20.501Z,28.20
2018-02-24T09:25:48.437Z,28.70
2018-02-24T09:28:16.310Z,28.20
2018-02-24T09:30:44.235Z,28.30
2018-02-24T09:33:12.186Z,28.30
2018-02-24T09:35:40.086Z,28.40
2018-02-24T09:38:08.195Z,28.70
2018-02-24T09:40:36.084Z,28.10
2018-02-24T09:43:04.344Z,29.10
2018-02-24T09:45:32.267Z,28.20
2018-02-24T09:48:01.435Z,28.10
2018-02-24T09:50:29.317Z,28.50
2018-02-24T09:52:57.276Z,28.40
2018-02-24T09:55:25.169Z,27.70
2018-02-24T09:57:53.054Z,27.70
2018-02-24T10:00:21.022Z,26.90
2018-02-24T10:02:49.680Z,27.50
2018-02-24T10:05:17.690Z,27.50
2018-02-24T10:07:45.604Z,27.70
2018-02-24T10:10:13.599Z,28.10
2018-02-24T10:12:41.675Z,28.20
2018-02-24T10:15:10.282Z,28.10
2018-02-24T10:17:39.155Z,27.90
2018-02-24T10:20:07.096Z,27.80
2018-02-24T10:22:35.041Z,27.70
2018-02-24T10:25:03.009Z,28.20
2018-02-24T10:27:30.883Z,27.90
2018-02-24T10:29:58.907Z,28.10
2018-02-24T10:32:26.788Z,28.20
2018-02-24T10:34:54.670Z,27.30
2018-02-24T10:37:22.608Z,27.80
2018-02-24T10:39:50.487Z,28.20
2018-02-24T10:42:19.284Z,28.00
2018-02-24T10:44:47.179Z,28.00
2018-02-24T10:47:15.127Z,27.80
2018-02-24T10:49:43.010Z,27.90
2018-02-24T10:52:10.986Z,28.20
2018-02-24T10:54:38.867Z,28.50
2018-02-24T10:57:06.793Z,28.50
2018-02-24T10:59:34.729Z,28.80
2018-02-24T11:02:02.668Z,28.70
2018-02-24T11:04:36.660Z,29.00
2018-02-24T11:07:04.665Z,28.40
2018-02-24T11:09:32.559Z,28.50
2018-02-24T11:12:00.519Z,28.30
2018-02-24T11:14:28.399Z,28.20
2018-02-24T11:16:56.283Z,28.00
2018-02-24T11:19:24.204Z,27.50
2018-02-24T11:21:52.101Z,27.70
2018-02-24T11:24:20.055Z,27.80
2018-02-24T11:26:47.958Z,28.30
2018-02-24T11:29:15.889Z,28.50
2018-02-24T11:31:43.793Z,28.60
2018-02-24T11:34:11.805Z,29.00
2018-02-24T11:36:39.672Z,29.30
2018-02-24T11:39:07.608Z,29.50
2018-02-24T11:41:35.509Z,30.10
2018-02-24T11:44:03.497Z,30.00
2018-02-24T11:46:31.414Z,29.80
2018-02-24T11:48:59.295Z,29.70
2018-02-24T11:51:27.997Z,30.70
2018-02-24T11:53:55.872Z,30.70
2018-02-24T11:56:23.798Z,30.70
2018-02-24T11:58:51.697Z,32.30
2018-02-24T12:01:19.647Z,32.70
2018-02-24T12:03:47.704Z,32.40
2018-02-24T12:06:15.660Z,31.80
2018-02-24T12:08:43.597Z,32.00
2018-02-24T12:11:11.558Z,32.00
2018-02-24T12:13:39.454Z,32.20
2018-02-24T12:16:07.366Z,31.80
2018-02-24T12:18:35.297Z,32.30
2018-02-24T12:21:03.175Z,32.60
2018-02-24T12:23:31.109Z,32.90
2018-02-24T12:25:59.769Z,33.30
2018-02-24T12:28:29.280Z,33.20
2018-02-24T12:30:58.275Z,33.00
2018-02-24T12:33:26.810Z,33.10
2018-02-24T12:35:55.273Z,33.10
2018-02-24T12:38:23.796Z,33.50
2018-02-24T12:40:52.164Z,34.00
2018-02-24T12:43:20.892Z,34.10
2018-02-24T12:45:49.612Z,34.20
2018-02-24T12:48:17.490Z,34.10
2018-02-24T12:50:45.433Z,33.70
2018-02-24T12:53:13.427Z,33.40
2018-02-24T12:55:41.366Z,33.90
2018-02-24T12:58:09.252Z,33.90
2018-02-24T13:00:37.200Z,33.30
2018-02-24T13:03:05.125Z,34.00
2018-02-24T13:05:33.052Z,34.50
2018-02-24T13:08:00.960Z,34.10
2018-02-24T13:10:28.906Z,34.20
2018-02-24T13:12:56.813Z,35.20
2018-02-24T13:15:24.755Z,34.60
2018-02-24T13:17:52.627Z,34.30
2018-02-24T13:20:20.580Z,34.30
2018-02-24T13:22:48.531Z,34.10
2018-02-24T13:25:16.502Z,34.10
2018-02-24T13:27:44.438Z,34.00
2018-02-24T13:30:12.339Z,35.50
2018-02-24T13:32:44.207Z,35.50
2018-02-24T13:35:12.094Z,36.60
2018-02-24T13:37:40.064Z,36.30
2018-02-24T13:40:07.922Z,36.70
2018-02-24T13:42:35.869Z,37.80
2018-02-24T13:45:03.792Z,38.20
2018-02-24T13:47:31.890Z,38.40
2018-02-24T13:49:59.785Z,38.80
2018-02-24T13:52:27.713Z,40.20
2018-02-24T13:54:55.584Z,39.70
2018-02-24T13:57:23.503Z,39.90
2018-02-24T13:59:51.368Z,40.10
2018-02-24T14:02:21.379Z,41.30
2018-02-24T14:04:49.259Z,42.40
2018-02-24T14:07:17.166Z,43.10
2018-02-24T14:09:45.052Z,43.00
2018-02-24T14:12:13.014Z,45.90
2018-02-24T14:14:40.926Z,49.30
2018-02-24T14:17:08.850Z,52.90
2018-02-24T14:19:36.705Z,57.10
2018-02-24T14:22:04.629Z,58.80
2018-02-24T14:24:32.763Z,62.50
2018-02-24T14:27:00.875Z,67.70
2018-02-24T14:29:28.769Z,66.20
2018-02-24T14:31:56.692Z,67.30
2018-02-24T14:34:25.397Z,67.70
2018-02-24T14:36:53.338Z,67.70
2018-02-24T14:39:21.212Z,60.60
2018-02-24T14:41:49.135Z,60.00
2018-02-24T14:44:17.032Z,59.10
2018-02-24T14:46:44.976Z,63.50
2018-02-24T14:49:13.174Z,65.60
2018-02-24T14:51:40.836Z,65.60
2018-02-24T14:54:10.864Z,61.70
2018-02-24T14:56:38.781Z,58.60
2018-02-24T14:59:08.792Z,58.40
2018-02-24T15:01:36.711Z,59.30
2018-02-24T15:04:04.603Z,60.60
2018-02-24T15:06:33.353Z,58.40
2018-02-24T15:09:01.290Z,58.50
2018-02-24T15:11:29.234Z,61.80
2018-02-24T15:13:57.905Z,70.70
2018-02-24T15:16:26.255Z,71.50
2018-02-24T15:18:54.150Z,69.50
2018-02-24T15:21:22.126Z,73.90
2018-02-24T15:23:51.020Z,74.70
2018-02-24T15:26:19.737Z,76.30
2018-02-24T15:28:48.390Z,76.80
2018-02-24T15:31:18.864Z,73.20
2018-02-24T15:33:46.878Z,71.30
2018-02-24T15:36:14.858Z,68.70
2018-02-24T15:38:42.778Z,71.40
2018-02-24T15:41:10.741Z,68.60
2018-02-24T15:43:38.620Z,69.70
2018-02-24T15:46:06.559Z,71.60
2018-02-24T15:48:35.235Z,72.80
2018-02-24T15:51:03.148Z,73.20
2018-02-24T15:53:33.259Z,73.00
2018-02-24T15:56:01.207Z,71.70
2018-02-24T15:58:29.069Z,73.50
2018-02-24T16:00:58.014Z,71.70
2018-02-24T16:03:25.952Z,71.30
2018-02-24T16:05:53.821Z,66.60
2018-02-24T16:08:21.761Z,70.60
2018-02-24T16:10:49.627Z,71.10
2018-02-24T16:13:17.613Z,72.20
2018-02-24T16:15:45.491Z,70.90
2018-02-24T16:18:13.466Z,71.10
2018-02-24T16:20:41.342Z,70.90
2018-02-24T16:23:13.226Z,71.30
2018-02-24T16:25:41.085Z,72.50
2018-02-24T16:28:09.074Z,76.20
2018-02-24T16:30:36.948Z,75.50
2018-02-24T16:33:04.926Z,76.30
2018-02-24T16:35:32.823Z,75.50
2018-02-24T16:38:00.747Z,78.10
2018-02-24T16:40:28.642Z,77.30
2018-02-24T16:42:56.576Z,78.40
2018-02-24T16:45:24.446Z,80.10
2018-02-24T16:47:52.424Z,83.30
2018-02-24T16:50:20.317Z,84.60
2018-02-24T16:52:50.384Z,83.90
2018-02-24T16:55:18.257Z,82.10
2018-02-24T16:57:46.164Z,83.80
2018-02-24T17:00:15.019Z,84.30
2018-02-24T17:02:43.144Z,84.00
2018-02-24T17:05:11.020Z,86.60
2018-02-24T17:07:39.928Z,85.80
2018-02-24T17:10:08.563Z,84.70
2018-02-24T17:12:36.487Z,84.70
2018-02-24T17:15:04.383Z,85.30
2018-02-24T17:17:32.301Z,87.10
2018-02-24T17:20:00.176Z,88.80
2018-02-24T17:22:28.158Z,87.90
2018-02-24T17:24:56.800Z,90.00
2018-02-24T17:27:24.708Z,90.00
2018-02-24T17:29:53.354Z,86.60
2018-02-24T17:32:21.277Z,86.50
2018-02-24T17:34:49.168Z,87.60
2018-02-24T17:37:17.138Z,88.40
2018-02-24T17:39:45.023Z,89.40
2018-02-24T17:42:13.093Z,88.20
2018-02-24T17:44:41.116Z,89.00
2018-02-24T17:47:12.068Z,90.10
2018-02-24T17:49:40.000Z,90.30
2018-02-24T17:52:07.940Z,90.50
2018-02-24T17:54:35.852Z,90.30
2018-02-24T17:57:04.543Z,90.80
2018-02-24T17:59:37.207Z,93.20
2018-02-24T18:02:08.364Z,93.10
2018-02-24T18:04:40.686Z,90.80
2018-02-24T18:07:12.227Z,90.50
2018-02-24T18:09:40.399Z,90.90
2018-02-24T18:12:08.392Z,91.20
2018-02-24T18:14:36.314Z,90.50
2018-02-24T18:17:04.259Z,90.20
2018-02-24T18:19:32.148Z,90.80
2018-02-24T18:22:00.941Z,92.80
2018-02-24T18:24:29.589Z,93.00
2018-02-24T18:26:57.595Z,93.00
2018-02-24T18:29:26.254Z,90.80
2018-02-24T18:31:54.212Z,90.80
2018-02-24T18:34:22.218Z,90.60
2018-02-24T18:36:50.968Z,90.80
2018-02-24T18:39:18.909Z,90.80
2018-02-24T18:41:46.834Z,90.70
2018-02-24T18:44:14.765Z,90.50
2018-02-24T18:46:42.697Z,90.20
2018-02-24T18:49:10.668Z,88.80
2018-02-24T18:51:38.594Z,87.80
2018-02-24T18:54:06.521Z,88.30
2018-02-24T18:56:34.397Z,89.20
2018-02-24T18:59:02.314Z,86.70
2018-02-24T19:01:30.181Z,85.40
2018-02-24T19:03:58.192Z,82.70
2018-02-24T19:06:26.083Z,78.40
2018-02-24T19:08:54.020Z,77.80
2018-02-24T19:11:23.796Z,82.00
2018-02-24T19:13:51.893Z,82.00
2018-02-24T19:16:19.774Z,78.10
2018-02-24T19:18:48.467Z,74.20
2018-02-24T19:21:16.402Z,74.10
2018-02-24T19:23:44.349Z,76.40
2018-02-24T19:26:12.244Z,65.20
2018-02-24T19:28:40.208Z,63.20
2018-02-24T19:31:08.094Z,61.70
2018-02-24T19:33:37.013Z,60.50
2018-02-24T19:36:04.929Z,60.40
2018-02-24T19:38:32.879Z,59.70
2018-02-24T19:41:00.819Z,59.00
2018-02-24T19:43:28.735Z,64.80
2018-02-24T19:45:56.628Z,60.30
2018-02-24T19:48:27.462Z,61.00
2018-02-24T19:50:56.405Z,64.60
2018-02-24T19:53:24.356Z,64.70
2018-02-24T19:55:52.255Z,59.60
2018-02-24T19:58:20.186Z,59.70
2018-02-24T20:00:48.068Z,62.00
2018-02-24T20:03:16.862Z,56.80
2018-02-24T20:05:44.730Z,57.30
2018-02-24T20:08:12.656Z,64.40
2018-02-24T20:10:40.649Z,58.70
2018-02-24T20:13:08.582Z,60.30
2018-02-24T20:15:37.226Z,56.30
2018-02-24T20:18:05.173Z,57.20
2018-02-24T20:20:33.057Z,56.90
2018-02-24T20:23:01.005Z,56.50
2018-02-24T20:25:28.955Z,55.80
2018-02-24T20:27:56.905Z,56.10
2018-02-24T20:30:24.845Z,58.20
2018-02-24T20:32:52.791Z,59.00
2018-02-24T20:35:22.488Z,62.30
2018-02-24T20:37:53.326Z,56.90
2018-02-24T20:40:24.129Z,60.90
2018-02-24T20:42:54.040Z,60.90
2018-02-24T20:45:21.909Z,59.50
2018-02-24T20:47:49.844Z,57.20
2018-02-24T20:50:17.729Z,56.70
2018-02-24T20:52:46.782Z,60.90
2018-02-24T20:55:14.759Z,57.70
2018-02-24T20:57:42.740Z,56.90
2018-02-24T21:00:10.702Z,56.60
2018-02-24T21:02:38.652Z,56.80
2018-02-24T21:05:06.533Z,56.70
2018-02-24T21:07:35.776Z,55.70
2018-02-24T21:10:05.960Z,55.60
2018-02-24T21:12:34.020Z,56.40
2018-02-24T21:15:01.917Z,59.90
2018-02-24T21:17:29.860Z,56.30
2018-02-24T21:19:57.989Z,55.90
2018-02-24T21:22:26.080Z,59.80
2018-02-24T21:24:53.971Z,57.20
2018-02-24T21:27:22.628Z,57.10
2018-02-24T21:29:50.550Z,57.00
2018-02-24T21:32:18.424Z,59.80
2018-02-24T21:34:46.476Z,59.70
2018-02-24T21:37:14.354Z,59.00
2018-02-24T21:39:42.297Z,59.60
2018-02-24T21:42:10.184Z,57.20
2018-02-24T21:44:38.906Z,59.50
2018-02-24T21:47:07.431Z,59.50
2018-02-24T21:49:35.355Z,60.20
2018-02-24T21:52:03.329Z,61.20
2018-02-24T21:54:31.286Z,61.10
2018-02-24T21:56:59.230Z,60.80
2018-02-24T21:59:27.953Z,64.70
2018-02-24T22:01:55.907Z,64.00
2018-02-24T22:04:27.845Z,63.60
2018-02-24T22:06:55.721Z,63.50
2018-02-24T22:09:23.673Z,65.70
2018-02-24T22:11:51.554Z,66.40
2018-02-24T22:14:20.368Z,67.40
2018-02-24T22:16:48.740Z,67.30
2018-02-24T22:19:17.553Z,64.80
2018-02-24T22:21:45.440Z,64.70
2018-02-24T22:24:13.763Z,66.80
2018-02-24T22:26:42.820Z,67.10
2018-02-24T22:29:10.782Z,67.10
2018-02-24T22:31:38.663Z,69.60
2018-02-24T22:34:06.752Z,70.60
2018-02-24T22:36:34.649Z,70.50
2018-02-24T22:39:02.572Z,68.90
2018-02-24T22:41:30.486Z,70.70
2018-02-24T22:43:58.478Z,70.80
2018-02-24T22:46:26.373Z,71.00
2018-02-24T22:48:59.951Z,71.20
2018-02-24T22:51:27.885Z,73.50
2018-02-24T22:53:55.810Z,73.90
2018-02-24T22:56:23.710Z,73.30
2018-02-24T22:58:51.667Z,72.80
2018-02-24T23:01:19.596Z,72.30
2018-02-24T23:03:47.610Z,76.50
2018-02-24T23:06:15.742Z,75.50
2018-02-24T23:08:43.728Z,76.50
2018-02-24T23:11:11.630Z,76.00
2018-02-24T23:13:39.624Z,77.30
2018-02-24T23:16:07.513Z,77.20
2018-02-24T23:18:35.508Z,77.80
2018-02-24T23:21:03.434Z,80.90
2018-02-24T23:23:31.538Z,79.30
2018-02-24T23:25:59.491Z,79.10
2018-02-24T23:28:27.545Z,81.00
2018-02-24T23:30:55.498Z,82.70
2018-02-24T23:33:23.434Z,81.40
2018-02-24T23:35:51.328Z,81.10
2018-02-24T23:38:19.260Z,81.20
2018-02-24T23:40:47.202Z,81.60
2018-02-24T23:43:15.138Z,80.40
2018-02-24T23:45:43.458Z,81.80
2018-02-24T23:48:11.415Z,81.70
2018-02-24T23:50:39.350Z,83.80
2018-02-24T23:53:07.900Z,84.50
2018-02-24T23:55:36.021Z,84.50
2018-02-24T23:58:03.904Z,84.00
